Saint David's, Bermuda

5:17 PM ADT on October 01, 2014 (GMT -0300)
Bermuda International | Change Station
CLOSE
Current Station
Airport
Location: St. David's,
Elevation: 10 ft
Nearby Weather Stations

Elev 10 ft 32.36 °N, 64.68 °W | Updated 22 minutes ago

Mostly Cloudy
Mostly Cloudy
82 °F
Feels Like 90 °F
N
12
Wind Variable Wind from SW

Today
High -- | Low -- °F
--% Chance of Precip.
Yesterday
High -- | Low -- °F
Precip. -- in
7:12 AM 7:03 PM
Waxing Crescent, 50% visible
Pressure 29.83 in
Visibility 6.2 miles
Clouds Scattered Clouds 2000 ft
Scattered Clouds 9000 ft
Mostly Cloudy 30000 ft
Heat Index 90 °F
Dew Point 75 °F
Humidity 79%
Rainfall 0.00 in
Snow Depth Not available.
UV 2 out of 12
Pollen Not available.
Air Quality Not available.
Flu Activity Not available.
METAR TXKF 301955Z 23010KT 9999 VCSH SCT020TCU SCT090 BKN300 28/24 Q1010 RMK TCU SW + DSNT NE

More Conditions Fewer Conditions

Pressure 29.83 in
Visibility 6.2 miles
Clouds Scattered Clouds 2000 ft
Scattered Clouds 9000 ft
Mostly Cloudy 30000 ft
Heat Index 90 °F
Dew Point 75 °F
Humidity 79%
Rainfall 0.00 in
Snow Depth Not available.
UV 2 out of 12
Pollen Not available.
Air Quality Not available.
Flu Activity Not available.
METAR TXKF 301955Z 23010KT 9999 VCSH SCT020TCU SCT090 BKN300 28/24 Q1010 RMK TCU SW + DSNT NE

More Conditions Fewer Conditions

10-Day Weather Forecast

Almanac

Astronomy

Oct. 01, 2014 Rise Set
Actual Time 7:12 AM ADT 7:03 PM ADT
Civil Twilight 6:48 AM ADT 7:27 PM ADT
Nautical Twilight 6:19 AM ADT 7:56 PM ADT
Astronomical Twilight 5:51 AM ADT 8:24 PM ADT
Moon 1:55 PM ADT No Moon Set
Length of Visible Light 12h 39m
Length of Day
11h 50m
Tomorrow will be 1m 58s shorter.
Waxing Crescent, 50% of the Moon is Illuminated
Today
Waxing Crescent
Oct 8
Full
Oct 15
Last Quarter
Oct 23
New
Oct 30
First Quarter

Today's Extremes

Country Highs Country Lows

Community

WunderPhotos

Upload Photos

1,758,022 photos uploaded!

WunderBlogs® & News

By Dr. Jeff Masters
Director of Meteorology, Weather Underground
By Kari Strenfel
Meteorologist, Weather Underground
By Christopher C. Burt
Weather Historian, Weather Underground
October 1, 2014
October 1, 2014
October 1, 2014

Nearby

Snow Depth

Not available.

Earthquake Activity

City Distance Mag. Time & Date
No recent earthquake activity has been reported nearby.
Minimum magnitude displayed is 2.5.

Coastal Water Temperatures

Place Temperature
No Stations Reporting

Nearby Weather Stations